sensor_id;sensor_type;location;lat;lon;timestamp;P1;durP1;ratioP1;P2;durP2;ratioP2
39994;SDS011;25686;51.908;10.418;2022-10-15T00:01:58;5.80;;;5.13;;
39994;SDS011;25686;51.908;10.418;2022-10-15T00:03:59;6.78;;;5.70;;
39994;SDS011;25686;51.908;10.418;2022-10-15T00:06:04;6.47;;;5.88;;
39994;SDS011;25686;51.908;10.418;2022-10-15T00:08:06;6.05;;;5.45;;
39994;SDS011;25686;51.908;10.418;2022-10-15T00:10:07;10.02;;;5.28;;
39994;SDS011;25686;51.908;10.418;2022-10-15T00:12:08;6.55;;;5.72;;
39994;SDS011;25686;51.908;10.418;2022-10-15T00:14:09;7.90;;;5.72;;
39994;SDS011;25686;51.908;10.418;2022-10-15T00:16:11;6.90;;;6.20;;
39994;SDS011;25686;51.908;10.418;2022-10-15T00:18:12;7.47;;;6.00;;
39994;SDS011;25686;51.908;10.418;2022-10-15T00:20:13;5.57;;;5.07;;
39994;SDS011;25686;51.908;10.418;2022-10-15T00:22:14;7.10;;;5.68;;
39994;SDS011;25686;51.908;10.418;2022-10-15T00:24:15;6.18;;;5.28;;
39994;SDS011;25686;51.908;10.418;2022-10-15T00:26:18;6.80;;;6.10;;
39994;SDS011;25686;51.908;10.418;2022-10-15T00:28:19;5.97;;;5.38;;
39994;SDS011;25686;51.908;10.418;2022-10-15T00:30:20;6.00;;;5.40;;
39994;SDS011;25686;51.908;10.418;2022-10-15T00:32:21;6.30;;;5.45;;
39994;SDS011;25686;51.908;10.418;2022-10-15T00:34:22;5.13;;;4.57;;
39994;SDS011;25686;51.908;10.418;2022-10-15T00:36:24;5.45;;;4.53;;
39994;SDS011;25686;51.908;10.418;2022-10-15T00:38:25;5.03;;;4.30;;
39994;SDS011;25686;51.908;10.418;2022-10-15T00:40:26;5.18;;;4.68;;
39994;SDS011;25686;51.908;10.418;2022-10-15T00:42:27;6.25;;;4.57;;
39994;SDS011;25686;51.908;10.418;2022-10-15T00:46:39;5.32;;;4.50;;
39994;SDS011;25686;51.908;10.418;2022-10-15T00:48:41;5.05;;;4.55;;
39994;SDS011;25686;51.908;10.418;2022-10-15T00:50:42;5.53;;;4.40;;
39994;SDS011;25686;51.908;10.418;2022-10-15T00:52:52;6.65;;;4.30;;
39994;SDS011;25686;51.908;10.418;2022-10-15T00:54:57;6.80;;;4.35;;
39994;SDS011;25686;51.908;10.418;2022-10-15T00:56:59;4.70;;;4.22;;
39994;SDS011;25686;51.908;10.418;2022-10-15T00:59:00;4.65;;;4.07;;
39994;SDS011;25686;51.908;10.418;2022-10-15T01:01:01;6.55;;;4.20;;
39994;SDS011;25686;51.908;10.418;2022-10-15T01:03:02;5.50;;;4.32;;
39994;SDS011;25686;51.908;10.418;2022-10-15T01:05:04;4.38;;;3.97;;
39994;SDS011;25686;51.908;10.418;2022-10-15T01:07:05;4.93;;;4.43;;
39994;SDS011;25686;51.908;10.418;2022-10-15T01:09:06;7.80;;;4.97;;
39994;SDS011;25686;51.908;10.418;2022-10-15T01:15:14;5.28;;;4.78;;
39994;SDS011;25686;51.908;10.418;2022-10-15T01:17:20;7.18;;;5.10;;
39994;SDS011;25686;51.908;10.418;2022-10-15T01:21:46;7.60;;;5.60;;
39994;SDS011;25686;51.908;10.418;2022-10-15T01:26:06;9.63;;;6.18;;
39994;SDS011;25686;51.908;10.418;2022-10-15T01:32:20;7.13;;;6.28;;
39994;SDS011;25686;51.908;10.418;2022-10-15T01:34:26;7.63;;;6.22;;
39994;SDS011;25686;51.908;10.418;2022-10-15T01:40:44;7.03;;;6.05;;
39994;SDS011;25686;51.908;10.418;2022-10-15T01:42:50;9.65;;;6.50;;
39994;SDS011;25686;51.908;10.418;2022-10-15T01:44:54;9.75;;;6.15;;
39994;SDS011;25686;51.908;10.418;2022-10-15T01:48:58;8.55;;;5.95;;
39994;SDS011;25686;51.908;10.418;2022-10-15T01:51:01;7.78;;;5.68;;
39994;SDS011;25686;51.908;10.418;2022-10-15T01:53:02;10.50;;;6.47;;
39994;SDS011;25686;51.908;10.418;2022-10-15T01:55:05;9.00;;;6.28;;
39994;SDS011;25686;51.908;10.418;2022-10-15T01:57:07;7.28;;;6.30;;
39994;SDS011;25686;51.908;10.418;2022-10-15T01:59:09;7.20;;;6.25;;
39994;SDS011;25686;51.908;10.418;2022-10-15T02:01:10;7.30;;;6.50;;
39994;SDS011;25686;51.908;10.418;2022-10-15T02:03:11;7.78;;;6.75;;
39994;SDS011;25686;51.908;10.418;2022-10-15T02:05:17;7.45;;;6.00;;
39994;SDS011;25686;51.908;10.418;2022-10-15T02:09:30;8.38;;;6.45;;
39994;SDS011;25686;51.908;10.418;2022-10-15T02:11:33;7.13;;;5.95;;
39994;SDS011;25686;51.908;10.418;2022-10-15T02:13:44;7.65;;;5.93;;
39994;SDS011;25686;51.908;10.418;2022-10-15T02:18:20;8.38;;;5.88;;
39994;SDS011;25686;51.908;10.418;2022-10-15T02:20:23;6.15;;;5.55;;
39994;SDS011;25686;51.908;10.418;2022-10-15T02:22:33;6.05;;;5.20;;
39994;SDS011;25686;51.908;10.418;2022-10-15T02:24:38;6.78;;;5.22;;
39994;SDS011;25686;51.908;10.418;2022-10-15T02:26:40;6.57;;;5.72;;
39994;SDS011;25686;51.908;10.418;2022-10-15T02:28:43;6.97;;;6.13;;
39994;SDS011;25686;51.908;10.418;2022-10-15T02:30:46;8.70;;;6.05;;
39994;SDS011;25686;51.908;10.418;2022-10-15T02:32:49;8.07;;;6.20;;
39994;SDS011;25686;51.908;10.418;2022-10-15T02:34:50;9.93;;;6.07;;
39994;SDS011;25686;51.908;10.418;2022-10-15T02:36:52;10.07;;;6.55;;
39994;SDS011;25686;51.908;10.418;2022-10-15T02:38:53;9.65;;;7.13;;
39994;SDS011;25686;51.908;10.418;2022-10-15T02:40:55;9.68;;;6.63;;
39994;SDS011;25686;51.908;10.418;2022-10-15T02:42:57;9.50;;;7.50;;
39994;SDS011;25686;51.908;10.418;2022-10-15T02:44:59;9.05;;;7.25;;
39994;SDS011;25686;51.908;10.418;2022-10-15T02:47:00;8.80;;;7.32;;
39994;SDS011;25686;51.908;10.418;2022-10-15T02:49:01;10.50;;;7.55;;
39994;SDS011;25686;51.908;10.418;2022-10-15T02:51:02;8.25;;;7.45;;
39994;SDS011;25686;51.908;10.418;2022-10-15T02:53:03;9.40;;;6.78;;
39994;SDS011;25686;51.908;10.418;2022-10-15T02:55:05;9.32;;;6.82;;
39994;SDS011;25686;51.908;10.418;2022-10-15T02:57:06;9.70;;;7.03;;
39994;SDS011;25686;51.908;10.418;2022-10-15T02:59:06;9.32;;;7.28;;
39994;SDS011;25686;51.908;10.418;2022-10-15T03:01:07;10.68;;;7.28;;
39994;SDS011;25686;51.908;10.418;2022-10-15T03:03:09;9.45;;;7.90;;
39994;SDS011;25686;51.908;10.418;2022-10-15T03:05:10;8.30;;;7.38;;
39994;SDS011;25686;51.908;10.418;2022-10-15T03:07:11;8.70;;;7.78;;
39994;SDS011;25686;51.908;10.418;2022-10-15T03:09:13;8.70;;;7.70;;
39994;SDS011;25686;51.908;10.418;2022-10-15T03:11:14;10.52;;;8.25;;
39994;SDS011;25686;51.908;10.418;2022-10-15T03:13:15;11.63;;;8.15;;
39994;SDS011;25686;51.908;10.418;2022-10-15T03:15:16;8.50;;;7.57;;
39994;SDS011;25686;51.908;10.418;2022-10-15T03:17:17;9.18;;;7.35;;
39994;SDS011;25686;51.908;10.418;2022-10-15T03:19:19;8.73;;;7.32;;
39994;SDS011;25686;51.908;10.418;2022-10-15T03:21:20;11.18;;;7.63;;
39994;SDS011;25686;51.908;10.418;2022-10-15T03:23:21;9.00;;;7.75;;
39994;SDS011;25686;51.908;10.418;2022-10-15T03:25:22;10.88;;;8.55;;
39994;SDS011;25686;51.908;10.418;2022-10-15T03:27:23;10.70;;;8.52;;
39994;SDS011;25686;51.908;10.418;2022-10-15T03:29:24;8.55;;;7.65;;
39994;SDS011;25686;51.908;10.418;2022-10-15T03:31:25;9.55;;;7.25;;
39994;SDS011;25686;51.908;10.418;2022-10-15T03:33:26;9.90;;;8.20;;
39994;SDS011;25686;51.908;10.418;2022-10-15T03:35:27;11.95;;;8.35;;
39994;SDS011;25686;51.908;10.418;2022-10-15T03:37:28;12.43;;;8.45;;
39994;SDS011;25686;51.908;10.418;2022-10-15T03:39:29;11.73;;;8.38;;
39994;SDS011;25686;51.908;10.418;2022-10-15T03:41:30;9.23;;;7.35;;
39994;SDS011;25686;51.908;10.418;2022-10-15T03:43:31;9.15;;;7.95;;
39994;SDS011;25686;51.908;10.418;2022-10-15T03:45:32;8.68;;;7.47;;
39994;SDS011;25686;51.908;10.418;2022-10-15T03:47:33;8.48;;;7.18;;
39994;SDS011;25686;51.908;10.418;2022-10-15T03:49:34;8.05;;;7.15;;
39994;SDS011;25686;51.908;10.418;2022-10-15T03:51:35;8.23;;;6.90;;
39994;SDS011;25686;51.908;10.418;2022-10-15T03:53:36;8.52;;;6.50;;
39994;SDS011;25686;51.908;10.418;2022-10-15T03:55:37;7.95;;;7.00;;
39994;SDS011;25686;51.908;10.418;2022-10-15T03:57:38;9.55;;;6.78;;
39994;SDS011;25686;51.908;10.418;2022-10-15T03:59:39;8.30;;;7.00;;
39994;SDS011;25686;51.908;10.418;2022-10-15T04:01:40;10.90;;;7.07;;
39994;SDS011;25686;51.908;10.418;2022-10-15T04:03:41;8.25;;;6.57;;
39994;SDS011;25686;51.908;10.418;2022-10-15T04:05:48;10.43;;;7.20;;
39994;SDS011;25686;51.908;10.418;2022-10-15T04:07:49;7.30;;;6.60;;
39994;SDS011;25686;51.908;10.418;2022-10-15T04:09:50;7.28;;;6.50;;
39994;SDS011;25686;51.908;10.418;2022-10-15T04:11:50;7.32;;;6.60;;
39994;SDS011;25686;51.908;10.418;2022-10-15T04:13:51;6.57;;;5.95;;
39994;SDS011;25686;51.908;10.418;2022-10-15T04:15:52;8.18;;;6.35;;
39994;SDS011;25686;51.908;10.418;2022-10-15T04:17:53;6.88;;;6.18;;
39994;SDS011;25686;51.908;10.418;2022-10-15T04:19:54;7.10;;;5.93;;
39994;SDS011;25686;51.908;10.418;2022-10-15T04:21:55;10.38;;;6.35;;
39994;SDS011;25686;51.908;10.418;2022-10-15T04:23:56;7.00;;;5.97;;
39994;SDS011;25686;51.908;10.418;2022-10-15T04:25:58;6.60;;;5.60;;
39994;SDS011;25686;51.908;10.418;2022-10-15T04:27:59;6.45;;;5.57;;
39994;SDS011;25686;51.908;10.418;2022-10-15T04:30:01;6.50;;;5.20;;
39994;SDS011;25686;51.908;10.418;2022-10-15T04:32:02;6.07;;;5.40;;
39994;SDS011;25686;51.908;10.418;2022-10-15T04:34:03;8.25;;;5.65;;
39994;SDS011;25686;51.908;10.418;2022-10-15T04:36:05;6.88;;;5.38;;
39994;SDS011;25686;51.908;10.418;2022-10-15T04:38:06;6.50;;;5.70;;
39994;SDS011;25686;51.908;10.418;2022-10-15T04:40:07;6.53;;;5.85;;
39994;SDS011;25686;51.908;10.418;2022-10-15T04:42:09;8.85;;;5.60;;
39994;SDS011;25686;51.908;10.418;2022-10-15T04:44:09;6.47;;;5.70;;
39994;SDS011;25686;51.908;10.418;2022-10-15T04:46:11;6.68;;;5.97;;
39994;SDS011;25686;51.908;10.418;2022-10-15T04:48:12;8.18;;;6.47;;
39994;SDS011;25686;51.908;10.418;2022-10-15T04:50:12;11.00;;;6.13;;
39994;SDS011;25686;51.908;10.418;2022-10-15T04:52:13;8.95;;;7.07;;
39994;SDS011;25686;51.908;10.418;2022-10-15T04:54:14;8.90;;;7.10;;
39994;SDS011;25686;51.908;10.418;2022-10-15T04:56:16;7.13;;;6.28;;
39994;SDS011;25686;51.908;10.418;2022-10-15T04:58:17;7.55;;;6.70;;
39994;SDS011;25686;51.908;10.418;2022-10-15T05:00:18;7.78;;;6.53;;
39994;SDS011;25686;51.908;10.418;2022-10-15T05:02:19;8.75;;;6.78;;
39994;SDS011;25686;51.908;10.418;2022-10-15T05:04:20;8.85;;;6.75;;
39994;SDS011;25686;51.908;10.418;2022-10-15T05:06:21;7.97;;;5.90;;
39994;SDS011;25686;51.908;10.418;2022-10-15T05:08:22;8.38;;;6.63;;
39994;SDS011;25686;51.908;10.418;2022-10-15T05:10:23;8.13;;;6.40;;
39994;SDS011;25686;51.908;10.418;2022-10-15T05:12:24;7.63;;;6.82;;
39994;SDS011;25686;51.908;10.418;2022-10-15T05:14:25;8.18;;;6.55;;
39994;SDS011;25686;51.908;10.418;2022-10-15T05:16:27;8.60;;;7.10;;
39994;SDS011;25686;51.908;10.418;2022-10-15T05:18:29;9.55;;;6.60;;
39994;SDS011;25686;51.908;10.418;2022-10-15T05:20:30;7.68;;;6.88;;
39994;SDS011;25686;51.908;10.418;2022-10-15T05:22:31;7.20;;;6.50;;
39994;SDS011;25686;51.908;10.418;2022-10-15T05:24:32;7.53;;;6.57;;
39994;SDS011;25686;51.908;10.418;2022-10-15T05:26:33;9.13;;;6.53;;
39994;SDS011;25686;51.908;10.418;2022-10-15T05:28:34;10.90;;;6.28;;
39994;SDS011;25686;51.908;10.418;2022-10-15T05:30:35;8.45;;;6.68;;
39994;SDS011;25686;51.908;10.418;2022-10-15T05:32:36;9.20;;;6.63;;
39994;SDS011;25686;51.908;10.418;2022-10-15T05:34:37;6.82;;;5.95;;
39994;SDS011;25686;51.908;10.418;2022-10-15T05:36:38;8.15;;;6.45;;
39994;SDS011;25686;51.908;10.418;2022-10-15T05:38:40;8.07;;;6.10;;
39994;SDS011;25686;51.908;10.418;2022-10-15T05:40:46;7.40;;;6.30;;
39994;SDS011;25686;51.908;10.418;2022-10-15T05:42:49;10.45;;;6.00;;
39994;SDS011;25686;51.908;10.418;2022-10-15T05:44:51;6.95;;;5.93;;
39994;SDS011;25686;51.908;10.418;2022-10-15T05:46:52;8.13;;;6.43;;
39994;SDS011;25686;51.908;10.418;2022-10-15T05:48:56;8.50;;;6.28;;
39994;SDS011;25686;51.908;10.418;2022-10-15T05:51:00;7.18;;;6.45;;
39994;SDS011;25686;51.908;10.418;2022-10-15T05:53:01;9.60;;;6.57;;
39994;SDS011;25686;51.908;10.418;2022-10-15T05:55:02;8.13;;;6.97;;
39994;SDS011;25686;51.908;10.418;2022-10-15T05:57:03;7.95;;;7.13;;
39994;SDS011;25686;51.908;10.418;2022-10-15T05:59:04;7.40;;;6.47;;
39994;SDS011;25686;51.908;10.418;2022-10-15T06:01:06;9.25;;;7.05;;
39994;SDS011;25686;51.908;10.418;2022-10-15T06:03:10;8.98;;;7.20;;
39994;SDS011;25686;51.908;10.418;2022-10-15T06:05:11;7.32;;;6.63;;
39994;SDS011;25686;51.908;10.418;2022-10-15T06:07:12;8.57;;;7.40;;
39994;SDS011;25686;51.908;10.418;2022-10-15T06:09:13;7.40;;;6.70;;
39994;SDS011;25686;51.908;10.418;2022-10-15T06:11:14;9.05;;;7.53;;
39994;SDS011;25686;51.908;10.418;2022-10-15T06:13:15;7.90;;;6.68;;
39994;SDS011;25686;51.908;10.418;2022-10-15T06:15:17;10.73;;;6.70;;
39994;SDS011;25686;51.908;10.418;2022-10-15T06:17:18;7.43;;;6.50;;
39994;SDS011;25686;51.908;10.418;2022-10-15T06:19:19;9.43;;;6.97;;
39994;SDS011;25686;51.908;10.418;2022-10-15T06:21:20;8.63;;;6.25;;
39994;SDS011;25686;51.908;10.418;2022-10-15T06:23:21;10.70;;;7.50;;
39994;SDS011;25686;51.908;10.418;2022-10-15T06:25:23;7.47;;;6.70;;
39994;SDS011;25686;51.908;10.418;2022-10-15T06:27:24;8.27;;;7.05;;
39994;SDS011;25686;51.908;10.418;2022-10-15T06:29:25;8.90;;;7.68;;
39994;SDS011;25686;51.908;10.418;2022-10-15T06:31:26;10.25;;;7.22;;
39994;SDS011;25686;51.908;10.418;2022-10-15T06:33:27;7.53;;;6.72;;
39994;SDS011;25686;51.908;10.418;2022-10-15T06:35:28;11.02;;;7.30;;
39994;SDS011;25686;51.908;10.418;2022-10-15T06:37:29;10.70;;;6.45;;
39994;SDS011;25686;51.908;10.418;2022-10-15T06:39:30;7.28;;;6.53;;
39994;SDS011;25686;51.908;10.418;2022-10-15T06:41:31;7.47;;;6.22;;
39994;SDS011;25686;51.908;10.418;2022-10-15T06:43:32;7.43;;;6.63;;
39994;SDS011;25686;51.908;10.418;2022-10-15T06:45:33;10.40;;;6.75;;
39994;SDS011;25686;51.908;10.418;2022-10-15T06:47:36;9.90;;;6.70;;
39994;SDS011;25686;51.908;10.418;2022-10-15T06:49:37;7.80;;;7.00;;
39994;SDS011;25686;51.908;10.418;2022-10-15T06:51:38;8.32;;;7.38;;
39994;SDS011;25686;51.908;10.418;2022-10-15T06:53:39;10.63;;;7.03;;
39994;SDS011;25686;51.908;10.418;2022-10-15T06:55:41;8.95;;;6.72;;
39994;SDS011;25686;51.908;10.418;2022-10-15T06:57:42;8.10;;;6.63;;
39994;SDS011;25686;51.908;10.418;2022-10-15T06:59:43;8.13;;;6.68;;
39994;SDS011;25686;51.908;10.418;2022-10-15T07:01:44;7.57;;;6.80;;
39994;SDS011;25686;51.908;10.418;2022-10-15T07:03:47;7.78;;;6.95;;
39994;SDS011;25686;51.908;10.418;2022-10-15T07:05:48;8.55;;;7.35;;
39994;SDS011;25686;51.908;10.418;2022-10-15T07:07:52;8.75;;;7.10;;
39994;SDS011;25686;51.908;10.418;2022-10-15T07:09:53;8.25;;;7.40;;
39994;SDS011;25686;51.908;10.418;2022-10-15T07:11:55;8.98;;;6.88;;
39994;SDS011;25686;51.908;10.418;2022-10-15T07:13:55;8.52;;;6.43;;
39994;SDS011;25686;51.908;10.418;2022-10-15T07:15:57;6.63;;;6.03;;
39994;SDS011;25686;51.908;10.418;2022-10-15T07:17:58;6.60;;;6.00;;
39994;SDS011;25686;51.908;10.418;2022-10-15T07:20:03;6.88;;;6.18;;
39994;SDS011;25686;51.908;10.418;2022-10-15T07:22:04;7.10;;;6.47;;
39994;SDS011;25686;51.908;10.418;2022-10-15T07:24:05;9.10;;;7.15;;
39994;SDS011;25686;51.908;10.418;2022-10-15T07:26:06;7.72;;;6.90;;
39994;SDS011;25686;51.908;10.418;2022-10-15T07:28:07;8.35;;;6.28;;
39994;SDS011;25686;51.908;10.418;2022-10-15T07:30:08;6.63;;;6.00;;
39994;SDS011;25686;51.908;10.418;2022-10-15T07:32:09;7.65;;;6.28;;
39994;SDS011;25686;51.908;10.418;2022-10-15T07:34:10;8.15;;;6.82;;
39994;SDS011;25686;51.908;10.418;2022-10-15T07:36:11;7.70;;;6.60;;
39994;SDS011;25686;51.908;10.418;2022-10-15T07:38:12;8.38;;;6.90;;
39994;SDS011;25686;51.908;10.418;2022-10-15T07:40:13;8.07;;;6.57;;
39994;SDS011;25686;51.908;10.418;2022-10-15T07:42:14;8.13;;;6.60;;
39994;SDS011;25686;51.908;10.418;2022-10-15T07:44:15;7.78;;;6.25;;
39994;SDS011;25686;51.908;10.418;2022-10-15T07:46:16;7.68;;;5.93;;
39994;SDS011;25686;51.908;10.418;2022-10-15T07:48:16;7.60;;;6.30;;
39994;SDS011;25686;51.908;10.418;2022-10-15T07:50:18;6.43;;;5.82;;
39994;SDS011;25686;51.908;10.418;2022-10-15T07:52:19;6.25;;;5.57;;
39994;SDS011;25686;51.908;10.418;2022-10-15T07:54:20;5.97;;;5.10;;
39994;SDS011;25686;51.908;10.418;2022-10-15T07:56:21;5.53;;;4.93;;
39994;SDS011;25686;51.908;10.418;2022-10-15T07:58:22;7.53;;;5.82;;
39994;SDS011;25686;51.908;10.418;2022-10-15T08:00:23;5.60;;;5.10;;
39994;SDS011;25686;51.908;10.418;2022-10-15T08:02:24;6.20;;;5.32;;
39994;SDS011;25686;51.908;10.418;2022-10-15T08:04:25;5.70;;;5.07;;
39994;SDS011;25686;51.908;10.418;2022-10-15T08:06:26;5.43;;;4.53;;
39994;SDS011;25686;51.908;10.418;2022-10-15T08:08:27;6.47;;;5.03;;
39994;SDS011;25686;51.908;10.418;2022-10-15T08:10:28;4.97;;;4.38;;
39994;SDS011;25686;51.908;10.418;2022-10-15T08:12:29;5.32;;;4.30;;
39994;SDS011;25686;51.908;10.418;2022-10-15T08:14:30;4.60;;;4.15;;
39994;SDS011;25686;51.908;10.418;2022-10-15T08:16:31;6.13;;;4.20;;
39994;SDS011;25686;51.908;10.418;2022-10-15T08:18:32;5.90;;;5.30;;
39994;SDS011;25686;51.908;10.418;2022-10-15T08:20:33;6.55;;;5.20;;
39994;SDS011;25686;51.908;10.418;2022-10-15T08:22:35;6.13;;;5.40;;
39994;SDS011;25686;51.908;10.418;2022-10-15T08:24:36;6.65;;;5.18;;
39994;SDS011;25686;51.908;10.418;2022-10-15T08:26:37;6.65;;;5.80;;
39994;SDS011;25686;51.908;10.418;2022-10-15T08:28:38;6.43;;;5.28;;
39994;SDS011;25686;51.908;10.418;2022-10-15T08:30:39;5.70;;;4.90;;
39994;SDS011;25686;51.908;10.418;2022-10-15T08:32:40;8.70;;;4.80;;
39994;SDS011;25686;51.908;10.418;2022-10-15T08:34:41;5.57;;;5.07;;
39994;SDS011;25686;51.908;10.418;2022-10-15T08:36:42;5.93;;;3.88;;
39994;SDS011;25686;51.908;10.418;2022-10-15T08:38:43;4.43;;;4.03;;
39994;SDS011;25686;51.908;10.418;2022-10-15T08:40:47;7.13;;;4.13;;
39994;SDS011;25686;51.908;10.418;2022-10-15T08:42:48;5.68;;;4.50;;
39994;SDS011;25686;51.908;10.418;2022-10-15T08:44:50;5.90;;;4.50;;
39994;SDS011;25686;51.908;10.418;2022-10-15T08:47:04;6.25;;;4.57;;
39994;SDS011;25686;51.908;10.418;2022-10-15T08:49:06;6.45;;;4.93;;
39994;SDS011;25686;51.908;10.418;2022-10-15T08:51:20;5.93;;;4.85;;
39994;SDS011;25686;51.908;10.418;2022-10-15T08:53:22;8.18;;;6.43;;
39994;SDS011;25686;51.908;10.418;2022-10-15T08:55:26;9.20;;;6.25;;
39994;SDS011;25686;51.908;10.418;2022-10-15T08:59:51;7.70;;;5.57;;
39994;SDS011;25686;51.908;10.418;2022-10-15T09:06:13;7.00;;;5.25;;
39994;SDS011;25686;51.908;10.418;2022-10-15T09:10:17;5.25;;;4.00;;
39994;SDS011;25686;51.908;10.418;2022-10-15T09:14:23;3.20;;;2.90;;
39994;SDS011;25686;51.908;10.418;2022-10-15T09:16:27;2.92;;;2.63;;
39994;SDS011;25686;51.908;10.418;2022-10-15T09:18:29;2.50;;;2.30;;
39994;SDS011;25686;51.908;10.418;2022-10-15T09:20:34;2.90;;;2.53;;
39994;SDS011;25686;51.908;10.418;2022-10-15T09:22:36;3.70;;;1.80;;
39994;SDS011;25686;51.908;10.418;2022-10-15T09:24:37;2.40;;;1.30;;
39994;SDS011;25686;51.908;10.418;2022-10-15T09:31:07;1.75;;;1.48;;
39994;SDS011;25686;51.908;10.418;2022-10-15T09:37:32;3.75;;;1.65;;
39994;SDS011;25686;51.908;10.418;2022-10-15T09:41:53;1.40;;;1.30;;
39994;SDS011;25686;51.908;10.418;2022-10-15T09:43:58;1.20;;;1.10;;
39994;SDS011;25686;51.908;10.418;2022-10-15T09:46:01;2.80;;;0.98;;
39994;SDS011;25686;51.908;10.418;2022-10-15T09:48:04;1.30;;;1.20;;
39994;SDS011;25686;51.908;10.418;2022-10-15T09:50:12;1.52;;;1.33;;
39994;SDS011;25686;51.908;10.418;2022-10-15T09:54:21;1.15;;;0.80;;
39994;SDS011;25686;51.908;10.418;2022-10-15T09:56:35;0.70;;;0.70;;
39994;SDS011;25686;51.908;10.418;2022-10-15T09:58:38;1.58;;;1.33;;
39994;SDS011;25686;51.908;10.418;2022-10-15T10:03:06;1.42;;;1.15;;
39994;SDS011;25686;51.908;10.418;2022-10-15T10:05:26;0.70;;;0.70;;
39994;SDS011;25686;51.908;10.418;2022-10-15T10:07:32;1.25;;;0.77;;
39994;SDS011;25686;51.908;10.418;2022-10-15T10:09:35;1.27;;;1.00;;
39994;SDS011;25686;51.908;10.418;2022-10-15T10:11:50;1.38;;;1.20;;
39994;SDS011;25686;51.908;10.418;2022-10-15T10:13:53;1.77;;;1.15;;
39994;SDS011;25686;51.908;10.418;2022-10-15T10:15:54;1.90;;;0.93;;
39994;SDS011;25686;51.908;10.418;2022-10-15T10:17:56;1.00;;;0.82;;
39994;SDS011;25686;51.908;10.418;2022-10-15T10:20:01;1.17;;;0.68;;
39994;SDS011;25686;51.908;10.418;2022-10-15T10:22:14;0.95;;;0.80;;
39994;SDS011;25686;51.908;10.418;2022-10-15T10:26:22;1.05;;;0.68;;
39994;SDS011;25686;51.908;10.418;2022-10-15T10:28:26;0.80;;;0.80;;
39994;SDS011;25686;51.908;10.418;2022-10-15T10:30:27;1.73;;;0.70;;
39994;SDS011;25686;51.908;10.418;2022-10-15T10:32:33;1.15;;;0.85;;
39994;SDS011;25686;51.908;10.418;2022-10-15T10:34:34;1.17;;;1.17;;
39994;SDS011;25686;51.908;10.418;2022-10-15T10:36:35;0.63;;;0.63;;
39994;SDS011;25686;51.908;10.418;2022-10-15T10:38:37;0.85;;;0.85;;
39994;SDS011;25686;51.908;10.418;2022-10-15T10:40:40;1.20;;;1.20;;
39994;SDS011;25686;51.908;10.418;2022-10-15T10:42:41;1.17;;;0.88;;
39994;SDS011;25686;51.908;10.418;2022-10-15T10:44:42;0.85;;;0.85;;
39994;SDS011;25686;51.908;10.418;2022-10-15T10:47:20;0.65;;;0.65;;
39994;SDS011;25686;51.908;10.418;2022-10-15T10:49:14;0.90;;;0.90;;
39994;SDS011;25686;51.908;10.418;2022-10-15T10:51:30;1.17;;;0.70;;
39994;SDS011;25686;51.908;10.418;2022-10-15T10:53:31;1.48;;;0.60;;
39994;SDS011;25686;51.908;10.418;2022-10-15T10:55:36;0.60;;;0.60;;
39994;SDS011;25686;51.908;10.418;2022-10-15T10:57:41;0.80;;;0.60;;
39994;SDS011;25686;51.908;10.418;2022-10-15T10:59:50;0.50;;;0.50;;
39994;SDS011;25686;51.908;10.418;2022-10-15T11:01:52;1.98;;;0.77;;
39994;SDS011;25686;51.908;10.418;2022-10-15T11:03:53;0.65;;;0.60;;
39994;SDS011;25686;51.908;10.418;2022-10-15T11:05:57;0.73;;;0.40;;
39994;SDS011;25686;51.908;10.418;2022-10-15T11:08:09;0.38;;;0.38;;
39994;SDS011;25686;51.908;10.418;2022-10-15T11:10:18;0.50;;;0.50;;
39994;SDS011;25686;51.908;10.418;2022-10-15T11:19:43;0.60;;;0.60;;
39994;SDS011;25686;51.908;10.418;2022-10-15T11:21:55;0.70;;;0.70;;
39994;SDS011;25686;51.908;10.418;2022-10-15T11:26:29;2.40;;;0.80;;
39994;SDS011;25686;51.908;10.418;2022-10-15T11:31:06;0.80;;;0.80;;
39994;SDS011;25686;51.908;10.418;2022-10-15T11:33:20;1.77;;;1.00;;
39994;SDS011;25686;51.908;10.418;2022-10-15T11:35:33;1.20;;;1.10;;
39994;SDS011;25686;51.908;10.418;2022-10-15T11:37:51;0.93;;;0.93;;
39994;SDS011;25686;51.908;10.418;2022-10-15T11:48:01;3.30;;;2.30;;
39994;SDS011;25686;51.908;10.418;2022-10-15T11:50:13;2.60;;;2.38;;
39994;SDS011;25686;51.908;10.418;2022-10-15T11:54:35;2.80;;;2.28;;
39994;SDS011;25686;51.908;10.418;2022-10-15T11:56:38;2.55;;;2.35;;
39994;SDS011;25686;51.908;10.418;2022-10-15T11:58:44;2.95;;;2.35;;
39994;SDS011;25686;51.908;10.418;2022-10-15T12:00:51;2.15;;;1.95;;
39994;SDS011;25686;51.908;10.418;2022-10-15T12:02:53;2.55;;;2.28;;
39994;SDS011;25686;51.908;10.418;2022-10-15T12:04:57;2.88;;;2.20;;
39994;SDS011;25686;51.908;10.418;2022-10-15T12:07:00;2.50;;;1.95;;
39994;SDS011;25686;51.908;10.418;2022-10-15T12:09:02;2.65;;;2.03;;
39994;SDS011;25686;51.908;10.418;2022-10-15T12:11:06;2.30;;;2.10;;
39994;SDS011;25686;51.908;10.418;2022-10-15T12:13:14;3.28;;;2.00;;
39994;SDS011;25686;51.908;10.418;2022-10-15T12:15:29;4.38;;;2.00;;
39994;SDS011;25686;51.908;10.418;2022-10-15T12:17:44;2.35;;;1.67;;
39994;SDS011;25686;51.908;10.418;2022-10-15T12:19:50;2.22;;;1.60;;
39994;SDS011;25686;51.908;10.418;2022-10-15T12:23:54;3.28;;;1.50;;
39994;SDS011;25686;51.908;10.418;2022-10-15T12:25:55;1.63;;;1.52;;
39994;SDS011;25686;51.908;10.418;2022-10-15T12:28:03;4.68;;;1.50;;
39994;SDS011;25686;51.908;10.418;2022-10-15T12:32:14;2.42;;;1.30;;
39994;SDS011;25686;51.908;10.418;2022-10-15T12:34:27;1.00;;;1.00;;
39994;SDS011;25686;51.908;10.418;2022-10-15T12:36:29;1.30;;;1.20;;
39994;SDS011;25686;51.908;10.418;2022-10-15T12:40:31;1.17;;;1.08;;
39994;SDS011;25686;51.908;10.418;2022-10-15T12:42:36;1.80;;;1.10;;
39994;SDS011;25686;51.908;10.418;2022-10-15T12:44:38;1.08;;;1.00;;
39994;SDS011;25686;51.908;10.418;2022-10-15T12:46:39;3.45;;;1.23;;
39994;SDS011;25686;51.908;10.418;2022-10-15T12:48:41;1.30;;;1.00;;
39994;SDS011;25686;51.908;10.418;2022-10-15T12:50:42;3.42;;;1.17;;
39994;SDS011;25686;51.908;10.418;2022-10-15T12:52:54;0.93;;;0.90;;
39994;SDS011;25686;51.908;10.418;2022-10-15T12:55:07;3.67;;;0.85;;
39994;SDS011;25686;51.908;10.418;2022-10-15T13:05:50;1.20;;;0.70;;
39994;SDS011;25686;51.908;10.418;2022-10-15T13:07:51;1.77;;;0.90;;
39994;SDS011;25686;51.908;10.418;2022-10-15T13:09:53;1.17;;;0.77;;
39994;SDS011;25686;51.908;10.418;2022-10-15T13:11:55;1.48;;;0.73;;
39994;SDS011;25686;51.908;10.418;2022-10-15T13:16:12;0.98;;;0.70;;
39994;SDS011;25686;51.908;10.418;2022-10-15T13:18:13;2.45;;;0.68;;
39994;SDS011;25686;51.908;10.418;2022-10-15T13:20:26;1.10;;;0.65;;
39994;SDS011;25686;51.908;10.418;2022-10-15T13:22:29;1.38;;;0.80;;
39994;SDS011;25686;51.908;10.418;2022-10-15T13:24:38;1.88;;;0.57;;
39994;SDS011;25686;51.908;10.418;2022-10-15T13:26:39;1.40;;;0.57;;
39994;SDS011;25686;51.908;10.418;2022-10-15T13:28:41;1.02;;;0.75;;
39994;SDS011;25686;51.908;10.418;2022-10-15T13:30:47;0.50;;;0.50;;
39994;SDS011;25686;51.908;10.418;2022-10-15T13:32:49;0.52;;;0.52;;
39994;SDS011;25686;51.908;10.418;2022-10-15T13:34:50;0.47;;;0.47;;
39994;SDS011;25686;51.908;10.418;2022-10-15T13:36:53;1.20;;;0.57;;
39994;SDS011;25686;51.908;10.418;2022-10-15T13:38:57;0.80;;;0.55;;
39994;SDS011;25686;51.908;10.418;2022-10-15T13:40:58;1.38;;;0.70;;
39994;SDS011;25686;51.908;10.418;2022-10-15T13:43:00;2.47;;;0.57;;